createdAt,value
2022-10-31T00:00:28.352Z,70.01
2022-10-31T00:05:22.334Z,70.30
2022-10-31T00:10:17.150Z,70.23
2022-10-31T00:15:12.262Z,70.41
2022-10-31T00:20:07.589Z,70.52
2022-10-31T00:25:01.101Z,69.99
2022-10-31T00:29:54.158Z,70.47
2022-10-31T00:34:48.511Z,70.32
2022-10-31T00:39:41.586Z,70.42
2022-10-31T00:44:35.904Z,70.61
2022-10-31T00:49:29.157Z,70.73
2022-10-31T00:54:22.569Z,70.76
2022-10-31T00:59:16.490Z,70.87
2022-10-31T01:04:10.369Z,70.38
2022-10-31T01:09:03.690Z,69.98
2022-10-31T01:13:56.724Z,70.14
2022-10-31T01:18:49.993Z,70.32
2022-10-31T01:23:43.344Z,70.42
2022-10-31T01:28:44.571Z,69.67
2022-10-31T01:33:38.883Z,69.74
2022-10-31T01:38:36.090Z,69.48
2022-10-31T01:43:53.611Z,69.10
2022-10-31T01:48:47.358Z,69.12
2022-10-31T01:53:41.638Z,69.22
2022-10-31T01:58:35.047Z,69.44
2022-10-31T02:03:30.118Z,69.37
2022-10-31T02:08:31.958Z,69.45
2022-10-31T02:18:19.166Z,69.34
2022-10-31T02:23:29.656Z,68.64
2022-10-31T02:28:22.324Z,69.27
2022-10-31T02:33:53.265Z,69.13
2022-10-31T02:38:49.056Z,69.29
2022-10-31T02:43:50.935Z,69.44
2022-10-31T02:48:52.206Z,68.95
2022-10-31T02:53:45.273Z,68.88
2022-10-31T02:58:44.263Z,69.04
2022-10-31T03:03:52.866Z,68.74
2022-10-31T03:09:08.189Z,68.89
2022-10-31T03:14:12.510Z,68.54
2022-10-31T03:19:13.951Z,68.99
2022-10-31T03:24:08.641Z,68.73
2022-10-31T03:29:08.243Z,68.39
2022-10-31T03:34:07.888Z,68.48
2022-10-31T03:39:06.447Z,68.65
2022-10-31T03:44:29.706Z,68.14
2022-10-31T03:49:26.634Z,68.18
2022-10-31T03:54:33.955Z,67.70
2022-10-31T03:59:34.857Z,68.15
2022-10-31T04:04:28.994Z,68.17
2022-10-31T04:09:23.743Z,68.42
2022-10-31T04:14:17.757Z,68.02
2022-10-31T04:19:14.050Z,68.41
2022-10-31T04:24:09.796Z,67.77
2022-10-31T04:29:03.585Z,67.94
2022-10-31T04:33:57.535Z,67.97
2022-10-31T04:38:50.822Z,68.09
2022-10-31T04:43:59.774Z,68.37
2022-10-31T04:48:54.351Z,67.68
2022-10-31T04:53:48.318Z,68.00
2022-10-31T04:59:00.319Z,67.80
2022-10-31T05:03:59.683Z,68.03
2022-10-31T05:08:53.385Z,68.03
2022-10-31T05:13:47.402Z,68.03
2022-10-31T05:18:39.990Z,67.27
2022-10-31T05:23:51.774Z,67.59
2022-10-31T05:28:45.698Z,67.63
2022-10-31T05:33:39.179Z,67.81
2022-10-31T05:38:51.334Z,68.16
2022-10-31T05:43:52.713Z,67.28
2022-10-31T05:48:51.490Z,66.84
2022-10-31T05:54:03.726Z,67.00
2022-10-31T05:58:58.122Z,67.48
2022-10-31T06:03:52.566Z,66.83
2022-10-31T06:08:48.549Z,67.09
2022-10-31T06:13:46.593Z,67.56
2022-10-31T06:18:49.471Z,66.89
2022-10-31T06:23:49.959Z,64.82
2022-10-31T06:29:18.641Z,65.79
2022-10-31T06:34:27.722Z,65.93
2022-10-31T06:39:21.373Z,65.55
2022-10-31T06:44:14.336Z,65.69
2022-10-31T06:49:43.454Z,64.78
2022-10-31T06:54:41.006Z,65.48
2022-10-31T06:59:35.248Z,64.91
2022-10-31T07:04:40.289Z,60.48
2022-10-31T07:09:33.936Z,63.58
2022-10-31T07:14:30.216Z,64.45
2022-10-31T07:19:23.552Z,55.43
2022-10-31T07:24:16.798Z,54.22
2022-10-31T07:29:10.184Z,56.29
2022-10-31T07:34:04.014Z,59.41
2022-10-31T07:39:20.671Z,57.93
2022-10-31T07:44:13.480Z,59.70
2022-10-31T07:49:33.085Z,60.36
2022-10-31T07:54:45.698Z,60.83
2022-10-31T07:59:39.619Z,61.68
2022-10-31T08:04:33.677Z,61.76
2022-10-31T08:09:45.109Z,61.32
2022-10-31T08:14:46.813Z,61.93
2022-10-31T08:19:43.782Z,61.70
2022-10-31T08:29:33.730Z,62.53
2022-10-31T08:34:27.168Z,62.45
2022-10-31T08:39:40.458Z,62.58
2022-10-31T08:44:33.863Z,62.49
2022-10-31T08:49:27.325Z,63.21
2022-10-31T08:54:21.279Z,63.05
2022-10-31T08:59:23.873Z,62.41
2022-10-31T09:04:43.455Z,61.97
2022-10-31T09:09:36.827Z,61.79
2022-10-31T09:14:30.395Z,61.95
2022-10-31T09:19:44.035Z,62.03
2022-10-31T09:24:37.014Z,61.61
2022-10-31T09:29:33.695Z,61.71
2022-10-31T09:34:30.275Z,61.52
2022-10-31T09:39:31.326Z,62.13
2022-10-31T09:45:06.245Z,61.57
2022-10-31T09:50:07.909Z,61.72
2022-10-31T09:55:18.998Z,61.99
2022-10-31T10:00:33.621Z,62.28
2022-10-31T10:05:34.634Z,62.24
2022-10-31T10:10:49.348Z,62.05
2022-10-31T10:16:10.980Z,61.81
2022-10-31T10:21:44.164Z,62.23
2022-10-31T10:26:39.777Z,62.30
2022-10-31T10:31:40.834Z,62.45
2022-10-31T10:37:04.706Z,61.88
2022-10-31T10:42:16.730Z,62.22
2022-10-31T10:47:28.842Z,62.81
2022-10-31T10:52:54.670Z,62.52
2022-10-31T10:58:07.597Z,62.62
2022-10-31T11:03:01.649Z,62.98
2022-10-31T11:07:54.962Z,63.30
2022-10-31T11:13:20.414Z,62.54
2022-10-31T11:23:20.486Z,62.88
2022-10-31T11:28:14.123Z,62.97
2022-10-31T11:33:07.081Z,63.09
2022-10-31T11:38:03.725Z,61.51
2022-10-31T11:43:00.589Z,59.54
2022-10-31T11:47:59.772Z,59.83
2022-10-31T11:57:54.055Z,58.80
2022-10-31T12:02:48.339Z,59.47
2022-10-31T12:07:42.851Z,58.88
2022-10-31T12:12:47.777Z,58.75
2022-10-31T12:17:59.696Z,58.79
2022-10-31T12:23:17.234Z,58.83
2022-10-31T12:28:39.020Z,59.11
2022-10-31T12:33:54.604Z,58.95
2022-10-31T12:39:17.632Z,59.55
2022-10-31T12:44:16.235Z,59.42
2022-10-31T12:49:16.222Z,60.18
2022-10-31T12:54:23.170Z,59.78
2022-10-31T12:59:45.473Z,60.31
2022-10-31T13:05:05.950Z,60.53
2022-10-31T13:10:21.776Z,60.91
2022-10-31T13:15:39.777Z,60.44
2022-10-31T13:20:48.438Z,60.46
2022-10-31T13:26:15.842Z,61.55
2022-10-31T13:31:29.442Z,61.86
2022-10-31T13:36:37.856Z,61.89
2022-10-31T13:42:14.564Z,62.34
2022-10-31T13:47:23.299Z,62.15
2022-10-31T13:52:26.206Z,62.23
2022-10-31T13:57:45.195Z,62.26
2022-10-31T14:02:38.824Z,62.69
2022-10-31T14:07:32.956Z,62.74
2022-10-31T14:12:38.068Z,62.76
2022-10-31T14:17:39.506Z,62.69
2022-10-31T14:22:38.632Z,62.49
2022-10-31T14:27:37.891Z,62.73
2022-10-31T14:32:32.128Z,63.02
2022-10-31T14:38:18.368Z,62.90
2022-10-31T14:43:17.023Z,62.67
2022-10-31T14:48:31.069Z,62.97
2022-10-31T14:53:31.296Z,63.07
2022-10-31T15:03:36.644Z,62.84
2022-10-31T15:08:39.783Z,62.65
2022-10-31T15:13:34.003Z,62.83
2022-10-31T15:18:29.500Z,62.61
2022-10-31T15:23:25.476Z,63.08
2022-10-31T15:28:25.736Z,62.92
2022-10-31T15:33:25.761Z,63.11
2022-10-31T15:38:19.820Z,62.60
2022-10-31T15:43:17.889Z,62.97
2022-10-31T15:48:26.688Z,63.16
2022-10-31T15:53:24.218Z,62.89
2022-10-31T15:58:18.858Z,62.16
2022-10-31T16:03:21.074Z,62.40
2022-10-31T16:08:31.853Z,61.75
2022-10-31T16:13:34.271Z,61.42
2022-10-31T16:18:29.569Z,61.85
2022-10-31T16:23:31.966Z,61.86
2022-10-31T16:28:32.093Z,61.83
2022-10-31T16:33:32.535Z,61.88
2022-10-31T16:38:27.012Z,62.32
2022-10-31T16:43:21.923Z,61.77
2022-10-31T16:48:25.158Z,62.19
2022-10-31T16:53:19.452Z,63.12
2022-10-31T16:58:20.704Z,63.56
2022-10-31T17:03:12.626Z,63.21
2022-10-31T17:08:06.878Z,62.88
2022-10-31T17:13:01.954Z,62.30
2022-10-31T17:17:55.935Z,61.54
2022-10-31T17:22:49.221Z,62.04
2022-10-31T17:27:46.438Z,61.32
2022-10-31T17:32:42.299Z,61.22
2022-10-31T17:37:35.015Z,61.16
2022-10-31T17:42:28.853Z,60.91
2022-10-31T17:47:22.586Z,61.08
2022-10-31T17:52:15.889Z,60.92
2022-10-31T17:57:10.280Z,60.72
2022-10-31T18:02:11.873Z,61.05
2022-10-31T18:07:05.380Z,60.93
2022-10-31T18:11:58.655Z,61.30
2022-10-31T18:16:52.599Z,61.24
2022-10-31T18:21:52.446Z,61.00
2022-10-31T18:26:45.603Z,61.05
2022-10-31T18:31:39.554Z,61.24
2022-10-31T18:36:33.163Z,60.69
2022-10-31T18:41:25.749Z,61.12
2022-10-31T18:46:19.657Z,60.47
2022-10-31T18:51:18.439Z,59.96
2022-10-31T18:56:12.798Z,59.82
2022-10-31T19:01:08.677Z,60.04
2022-10-31T19:06:03.711Z,59.89
2022-10-31T19:11:02.212Z,60.27
2022-10-31T19:15:56.522Z,60.30
2022-10-31T19:20:50.983Z,59.83
2022-10-31T19:30:37.940Z,59.61
2022-10-31T19:35:32.151Z,58.85
2022-10-31T19:40:29.887Z,59.04
2022-10-31T19:45:24.004Z,58.86
2022-10-31T19:50:18.487Z,58.80
2022-10-31T19:55:11.388Z,58.43
2022-10-31T20:00:07.049Z,58.34
2022-10-31T20:05:04.845Z,57.62
2022-10-31T20:09:59.525Z,57.54
2022-10-31T20:14:53.871Z,57.04
2022-10-31T20:19:47.200Z,57.21
2022-10-31T20:24:41.419Z,57.41
2022-10-31T20:29:34.774Z,57.07
2022-10-31T20:34:28.246Z,57.06
2022-10-31T20:39:22.367Z,56.92
2022-10-31T20:44:15.412Z,57.19
2022-10-31T20:49:09.023Z,57.51
2022-10-31T20:54:02.523Z,57.09
2022-10-31T20:58:56.638Z,58.22
2022-10-31T21:03:51.368Z,59.03
2022-10-31T21:08:44.409Z,59.41
2022-10-31T21:13:41.449Z,59.15
2022-10-31T21:18:39.554Z,59.78
2022-10-31T21:23:33.853Z,59.79
2022-10-31T21:28:28.323Z,59.71
2022-10-31T21:33:21.787Z,59.99
2022-10-31T21:38:15.372Z,60.16
2022-10-31T21:43:09.279Z,60.16
2022-10-31T21:48:07.360Z,59.88
2022-10-31T21:53:20.450Z,59.86
2022-10-31T21:58:19.016Z,59.60
2022-10-31T22:03:12.917Z,59.59
2022-10-31T22:08:07.681Z,59.88
2022-10-31T22:13:03.006Z,60.32
2022-10-31T22:17:56.930Z,59.98
2022-10-31T22:22:51.653Z,59.99
2022-10-31T22:27:45.694Z,60.29
2022-10-31T22:32:40.452Z,60.37
2022-10-31T22:37:34.692Z,60.16
2022-10-31T22:42:28.707Z,59.93
2022-10-31T22:47:23.047Z,59.43
2022-10-31T22:52:17.661Z,59.94
2022-10-31T22:57:10.380Z,60.29
2022-10-31T23:02:06.033Z,59.58
2022-10-31T23:07:03.574Z,59.65
2022-10-31T23:12:16.774Z,59.40
2022-10-31T23:17:18.039Z,59.77
2022-10-31T23:22:11.540Z,59.47
2022-10-31T23:27:12.449Z,59.10
2022-10-31T23:32:07.459Z,58.12
2022-10-31T23:37:00.847Z,59.09
2022-10-31T23:41:54.094Z,59.24
2022-10-31T23:46:47.620Z,59.53
2022-10-31T23:51:40.831Z,59.20
2022-10-31T23:56:34.983Z,59.03
